createdAt,value
2022-09-06T00:00:32.291Z,14.83
2022-09-06T00:03:01.201Z,16.27
2022-09-06T00:05:30.183Z,15.47
2022-09-06T00:08:00.767Z,14.10
2022-09-06T00:10:31.122Z,15.57
2022-09-06T00:13:03.365Z,15.27
2022-09-06T00:15:34.146Z,14.50
2022-09-06T00:18:04.025Z,15.23
2022-09-06T00:20:34.666Z,14.87
2022-09-06T00:23:05.696Z,15.67
2022-09-06T00:25:34.677Z,14.50
2022-09-06T00:28:05.882Z,15.50
2022-09-06T00:30:35.851Z,15.67
2022-09-06T00:33:04.432Z,16.50
2022-09-06T00:35:32.991Z,16.77
2022-09-06T00:38:02.971Z,16.10
2022-09-06T00:40:33.781Z,16.87
2022-09-06T00:43:02.335Z,18.13
2022-09-06T00:45:32.182Z,16.37
2022-09-06T00:48:05.873Z,17.57
2022-09-06T00:50:34.969Z,17.57
2022-09-06T00:53:03.902Z,17.80
2022-09-06T00:55:32.520Z,16.17
2022-09-06T00:58:01.072Z,17.67
2022-09-06T01:00:29.595Z,17.57
2022-09-06T01:02:58.107Z,15.40
2022-09-06T01:05:36.378Z,16.43
2022-09-06T01:08:26.410Z,16.37
2022-09-06T01:11:11.369Z,17.00
2022-09-06T01:13:51.607Z,16.50
2022-09-06T01:16:28.719Z,17.57
2022-09-06T01:19:13.521Z,16.70
2022-09-06T01:21:51.155Z,16.03
2022-09-06T01:24:51.518Z,16.27
2022-09-06T01:27:43.292Z,17.03
2022-09-06T01:30:14.117Z,16.73
2022-09-06T01:32:52.013Z,16.93
2022-09-06T01:35:29.994Z,15.30
2022-09-06T01:37:59.785Z,17.60
2022-09-06T01:40:28.886Z,16.77
2022-09-06T01:42:59.692Z,16.97
2022-09-06T01:45:39.558Z,16.83
2022-09-06T01:48:17.913Z,16.60
2022-09-06T01:50:54.514Z,17.23
2022-09-06T01:53:43.007Z,15.63
2022-09-06T01:56:23.141Z,16.50
2022-09-06T01:59:11.127Z,16.40
2022-09-06T02:01:50.267Z,18.90
2022-09-06T02:04:27.523Z,17.17
2022-09-06T02:07:01.197Z,17.47
2022-09-06T02:09:34.728Z,18.97
2022-09-06T02:12:04.820Z,17.60
2022-09-06T02:14:40.396Z,16.70
2022-09-06T02:17:13.004Z,18.53
2022-09-06T02:19:45.773Z,17.87
2022-09-06T02:22:19.761Z,17.93
2022-09-06T02:24:51.754Z,16.90
2022-09-06T02:27:20.589Z,17.43
2022-09-06T02:29:50.689Z,18.87
2022-09-06T02:32:22.931Z,18.27
2022-09-06T02:34:53.170Z,16.87
2022-09-06T02:37:22.001Z,16.17
2022-09-06T02:39:50.496Z,16.90
2022-09-06T02:42:19.104Z,17.30
2022-09-06T02:44:49.205Z,15.63
2022-09-06T02:47:17.871Z,16.87
2022-09-06T02:49:46.344Z,16.00
2022-09-06T02:52:15.625Z,17.20
2022-09-06T02:54:44.140Z,17.40
2022-09-06T02:57:12.833Z,16.63
2022-09-06T02:59:41.332Z,17.37
2022-09-06T03:02:11.318Z,16.57
2022-09-06T03:04:39.819Z,15.80
2022-09-06T03:07:08.331Z,17.50
2022-09-06T03:09:36.900Z,19.33
2022-09-06T03:12:05.854Z,17.80
2022-09-06T03:14:36.049Z,16.67
2022-09-06T03:17:04.997Z,17.53
2022-09-06T03:19:34.896Z,17.27
2022-09-06T03:22:03.404Z,17.67
2022-09-06T03:24:31.927Z,18.20
2022-09-06T03:27:00.449Z,18.23
2022-09-06T03:29:28.954Z,18.30
2022-09-06T03:31:57.547Z,18.00
2022-09-06T03:34:26.186Z,18.40
2022-09-06T03:36:56.118Z,19.10
2022-09-06T03:39:24.808Z,19.43
2022-09-06T03:41:53.507Z,20.20
2022-09-06T03:44:22.085Z,20.03
2022-09-06T03:46:51.591Z,20.53
2022-09-06T03:49:20.100Z,19.03
2022-09-06T03:51:48.858Z,20.27
2022-09-06T03:54:18.830Z,19.67
2022-09-06T03:56:47.322Z,18.50
2022-09-06T03:59:15.886Z,19.47
2022-09-06T04:01:44.486Z,20.13
2022-09-06T04:04:13.183Z,20.70
2022-09-06T04:06:41.708Z,19.27
2022-09-06T04:09:10.234Z,19.70
2022-09-06T04:11:40.135Z,20.50
2022-09-06T04:14:08.627Z,19.20
2022-09-06T04:16:37.291Z,18.77
2022-09-06T04:19:05.918Z,19.80
2022-09-06T04:21:34.624Z,19.77
2022-09-06T04:24:03.472Z,18.77
2022-09-06T04:26:32.281Z,19.60
2022-09-06T04:29:02.279Z,19.30
2022-09-06T04:31:30.834Z,16.43
2022-09-06T04:33:59.510Z,17.60
2022-09-06T04:36:28.077Z,17.50
2022-09-06T04:38:56.772Z,17.93
2022-09-06T04:41:25.257Z,18.27
2022-09-06T04:43:53.740Z,16.70
2022-09-06T04:46:25.952Z,17.73
2022-09-06T04:48:55.941Z,19.00
2022-09-06T04:51:25.293Z,19.50
2022-09-06T04:53:54.306Z,16.73
2022-09-06T04:56:24.695Z,16.73
2022-09-06T04:58:54.818Z,17.73
2022-09-06T05:01:26.255Z,18.90
2022-09-06T05:03:56.921Z,17.30
2022-09-06T05:06:26.337Z,18.93
2022-09-06T05:08:54.841Z,16.97
2022-09-06T05:11:23.412Z,16.50
2022-09-06T05:13:51.961Z,17.67
2022-09-06T05:16:20.644Z,18.40
2022-09-06T05:18:50.580Z,15.50
2022-09-06T05:21:19.265Z,14.50
2022-09-06T05:23:47.779Z,14.77
2022-09-06T05:26:16.447Z,14.50
2022-09-06T05:28:45.031Z,15.97
2022-09-06T05:31:24.464Z,15.03
2022-09-06T05:33:54.981Z,15.43
2022-09-06T05:36:23.659Z,14.00
2022-09-06T05:38:52.841Z,13.57
2022-09-06T05:41:21.916Z,14.77
2022-09-06T05:43:50.587Z,13.27
2022-09-06T05:46:19.832Z,12.77
2022-09-06T05:48:55.376Z,13.90
2022-09-06T05:51:24.263Z,13.37
2022-09-06T05:53:52.769Z,13.47
2022-09-06T05:56:22.312Z,12.43
2022-09-06T05:58:50.869Z,12.73
2022-09-06T06:01:21.635Z,13.17
2022-09-06T06:03:57.208Z,13.67
2022-09-06T06:06:27.489Z,12.40
2022-09-06T06:08:56.828Z,12.60
2022-09-06T06:11:26.963Z,12.57
2022-09-06T06:13:55.652Z,12.23
2022-09-06T06:16:25.447Z,11.90
2022-09-06T06:18:55.641Z,12.97
2022-09-06T06:21:26.007Z,12.80
2022-09-06T06:23:56.253Z,14.07
2022-09-06T06:26:25.559Z,13.50
2022-09-06T06:28:55.560Z,13.53
2022-09-06T06:31:24.253Z,12.30
2022-09-06T06:33:53.060Z,14.13
2022-09-06T06:36:25.283Z,14.17
2022-09-06T06:38:55.508Z,11.40
2022-09-06T06:41:26.658Z,12.30
2022-09-06T06:43:56.071Z,11.37
2022-09-06T06:46:26.976Z,11.60
2022-09-06T06:48:55.692Z,11.63
2022-09-06T06:51:28.271Z,11.83
2022-09-06T06:53:57.819Z,13.73
2022-09-06T06:56:28.072Z,10.80
2022-09-06T06:58:58.447Z,12.90
2022-09-06T07:01:29.117Z,11.27
2022-09-06T07:03:58.145Z,11.77
2022-09-06T07:09:19.231Z,12.10
2022-09-06T07:11:49.311Z,11.37
2022-09-06T07:14:18.101Z,12.23
2022-09-06T07:16:47.175Z,11.33
2022-09-06T07:22:06.409Z,10.77
2022-09-06T07:24:35.527Z,10.53
2022-09-06T07:29:52.464Z,11.50
2022-09-06T07:32:21.176Z,10.50
2022-09-06T07:34:49.647Z,11.00
2022-09-06T07:37:19.658Z,11.07
2022-09-06T07:39:48.343Z,11.23
2022-09-06T07:42:17.334Z,10.70
2022-09-06T07:44:45.822Z,11.30
2022-09-06T07:53:13.021Z,10.90
2022-09-06T07:55:42.783Z,10.40
2022-09-06T07:58:11.231Z,11.47
2022-09-06T08:00:41.255Z,10.27
2022-09-06T08:03:10.281Z,9.73
2022-09-06T08:11:17.629Z,10.30
2022-09-06T08:13:47.353Z,9.93
2022-09-06T08:16:17.009Z,11.50
2022-09-06T08:18:45.550Z,9.73
2022-09-06T08:21:15.655Z,10.27
2022-09-06T08:23:48.141Z,9.93
2022-09-06T08:26:16.931Z,9.73
2022-09-06T08:28:45.689Z,10.20
2022-09-06T08:31:16.000Z,8.90
2022-09-06T08:33:45.545Z,9.50
2022-09-06T08:36:14.608Z,9.43
2022-09-06T08:38:44.718Z,10.00
2022-09-06T08:41:24.543Z,10.07
2022-09-06T08:46:53.793Z,9.93
2022-09-06T08:49:22.647Z,8.63
2022-09-06T08:52:24.695Z,10.53
2022-09-06T08:55:06.269Z,9.43
2022-09-06T08:57:52.973Z,9.97
2022-09-06T09:00:23.152Z,10.03
2022-09-06T09:02:56.175Z,8.33
2022-09-06T09:05:27.691Z,10.33
2022-09-06T09:08:06.422Z,7.87
2022-09-06T09:10:43.463Z,9.23
2022-09-06T09:13:21.641Z,9.20
2022-09-06T09:15:50.238Z,9.20
2022-09-06T09:18:24.594Z,7.60
2022-09-06T09:20:53.541Z,8.30
2022-09-06T09:23:22.030Z,8.30
2022-09-06T09:25:53.750Z,8.27
2022-09-06T09:28:24.643Z,8.53
2022-09-06T09:30:55.077Z,7.90
2022-09-06T09:33:27.794Z,8.60
2022-09-06T09:35:57.393Z,8.00
2022-09-06T09:38:29.019Z,9.53
2022-09-06T09:41:01.446Z,8.00
2022-09-06T09:43:32.988Z,8.70
2022-09-06T09:46:13.577Z,7.70
2022-09-06T09:48:44.459Z,7.97
2022-09-06T09:51:26.726Z,8.33
2022-09-06T09:53:57.616Z,7.17
2022-09-06T09:56:36.788Z,7.70
2022-09-06T09:59:16.338Z,7.57
2022-09-06T10:01:44.845Z,8.40
2022-09-06T10:07:12.564Z,7.03
2022-09-06T10:09:43.848Z,7.30
2022-09-06T10:12:19.442Z,6.97
2022-09-06T10:14:50.019Z,7.17
2022-09-06T10:17:28.873Z,8.00
2022-09-06T10:19:58.384Z,6.40
2022-09-06T10:22:31.464Z,7.13
2022-09-06T10:25:19.833Z,7.50
2022-09-06T10:28:11.428Z,6.87
2022-09-06T10:30:53.033Z,7.37
2022-09-06T10:33:31.971Z,6.87
2022-09-06T10:36:03.078Z,6.87
2022-09-06T10:38:42.788Z,6.93
2022-09-06T10:41:33.154Z,7.00
2022-09-06T10:44:13.700Z,6.70
2022-09-06T10:46:44.969Z,6.63
2022-09-06T10:49:18.838Z,6.70
2022-09-06T10:51:50.717Z,6.83
2022-09-06T10:54:22.156Z,7.10
2022-09-06T10:56:56.180Z,6.73
2022-09-06T10:59:38.068Z,5.83
2022-09-06T11:02:17.744Z,7.90
2022-09-06T11:07:42.741Z,7.47
2022-09-06T11:10:17.513Z,6.47
2022-09-06T11:12:50.944Z,6.70
2022-09-06T11:15:23.060Z,6.57
2022-09-06T11:17:56.547Z,6.33
2022-09-06T11:20:32.185Z,6.03
2022-09-06T11:23:29.055Z,7.17
2022-09-06T11:26:11.852Z,6.73
2022-09-06T11:28:44.718Z,6.50
2022-09-06T11:34:23.307Z,6.90
2022-09-06T11:36:53.714Z,6.40
2022-09-06T11:43:03.090Z,6.13
2022-09-06T11:45:44.205Z,6.43
2022-09-06T11:49:03.882Z,6.50
2022-09-06T11:51:36.579Z,6.87
2022-09-06T11:54:25.219Z,6.80
2022-09-06T11:56:58.697Z,7.20
2022-09-06T11:59:43.195Z,7.87
2022-09-06T12:02:31.731Z,7.00
2022-09-06T12:05:18.124Z,7.00
2022-09-06T12:08:29.619Z,7.40
2022-09-06T12:11:22.348Z,6.40
2022-09-06T12:13:55.953Z,7.10
2022-09-06T12:16:25.126Z,6.57
2022-09-06T12:19:01.418Z,6.47
2022-09-06T12:21:41.929Z,6.90
2022-09-06T12:24:31.404Z,6.43
2022-09-06T12:27:15.698Z,6.00
2022-09-06T12:29:54.959Z,6.60
2022-09-06T12:32:36.633Z,5.80
2022-09-06T12:38:00.527Z,5.40
2022-09-06T12:40:32.471Z,5.60
2022-09-06T12:43:04.903Z,6.80
2022-09-06T12:45:33.769Z,5.40
2022-09-06T12:48:08.598Z,5.97
2022-09-06T12:50:37.514Z,6.10
2022-09-06T12:53:23.394Z,5.77
2022-09-06T12:56:05.436Z,6.50
2022-09-06T12:58:35.922Z,6.37
2022-09-06T13:01:12.406Z,5.40
2022-09-06T13:03:45.362Z,5.40
2022-09-06T13:06:22.229Z,4.60
2022-09-06T13:08:57.073Z,5.30
2022-09-06T13:11:31.560Z,6.00
2022-09-06T13:14:03.927Z,5.40
2022-09-06T13:16:38.020Z,6.43
2022-09-06T13:19:14.153Z,6.00
2022-09-06T13:21:44.368Z,6.60
2022-09-06T13:24:25.070Z,6.20
2022-09-06T13:26:54.369Z,6.30
2022-09-06T13:29:31.446Z,6.23
2022-09-06T13:32:02.328Z,6.37
2022-09-06T13:34:32.849Z,6.10
2022-09-06T13:37:04.930Z,4.30
2022-09-06T13:39:37.472Z,4.40
2022-09-06T13:42:08.590Z,2.97
2022-09-06T13:44:39.976Z,2.37
2022-09-06T13:47:08.693Z,2.13
2022-09-06T13:49:37.168Z,1.97
2022-09-06T13:52:07.257Z,2.13
2022-09-06T13:54:36.662Z,1.80
2022-09-06T13:57:05.323Z,1.70
2022-09-06T13:59:33.846Z,1.87
2022-09-06T14:02:07.677Z,1.87
2022-09-06T14:04:36.672Z,2.47
2022-09-06T14:07:05.750Z,2.20
2022-09-06T14:09:34.330Z,2.53
2022-09-06T14:12:03.307Z,2.50
2022-09-06T14:14:31.994Z,2.53
2022-09-06T14:17:00.701Z,2.20
2022-09-06T14:19:30.715Z,2.50
2022-09-06T14:21:59.324Z,2.47
2022-09-06T14:24:27.853Z,3.00
2022-09-06T14:26:56.463Z,1.90
2022-09-06T14:29:25.005Z,2.07
2022-09-06T14:31:53.604Z,2.40
2022-09-06T14:34:22.190Z,2.30
2022-09-06T14:36:52.413Z,2.00
2022-09-06T14:39:21.120Z,2.70
2022-09-06T14:41:50.552Z,2.73
2022-09-06T14:44:19.123Z,2.20
2022-09-06T14:46:49.090Z,3.57
2022-09-06T14:49:17.722Z,2.43
2022-09-06T14:51:46.270Z,3.20
2022-09-06T14:54:16.850Z,3.00
2022-09-06T14:56:45.678Z,2.77
2022-09-06T14:59:14.578Z,3.50
2022-09-06T15:01:43.437Z,2.83
2022-09-06T15:04:13.429Z,4.07
2022-09-06T15:06:47.249Z,3.80
2022-09-06T15:09:17.904Z,3.80
2022-09-06T15:11:48.743Z,4.13
2022-09-06T15:14:18.848Z,4.20
2022-09-06T15:16:53.333Z,4.60
2022-09-06T15:19:24.622Z,4.30
2022-09-06T15:21:53.387Z,4.50
2022-09-06T15:24:23.460Z,4.10
2022-09-06T15:26:52.228Z,4.53
2022-09-06T15:29:21.418Z,4.30
2022-09-06T15:31:51.845Z,3.80
2022-09-06T15:34:21.703Z,3.90
2022-09-06T15:36:50.558Z,4.70
2022-09-06T15:39:19.943Z,3.70
2022-09-06T15:41:51.923Z,3.87
2022-09-06T15:44:21.930Z,4.50
2022-09-06T15:46:54.286Z,3.83
2022-09-06T15:49:28.569Z,4.33
2022-09-06T15:51:58.204Z,5.27
2022-09-06T15:54:41.025Z,4.57
2022-09-06T15:57:11.447Z,4.90
2022-09-06T15:59:41.579Z,5.47
2022-09-06T16:02:10.657Z,5.63
2022-09-06T16:04:39.311Z,6.47
2022-09-06T16:07:08.051Z,5.43
2022-09-06T16:09:36.605Z,6.00
2022-09-06T16:12:05.773Z,6.23
2022-09-06T16:14:35.857Z,5.90
2022-09-06T16:17:04.562Z,5.80
2022-09-06T16:19:33.197Z,6.50
2022-09-06T16:22:02.818Z,7.10
2022-09-06T16:24:31.466Z,7.30
2022-09-06T16:27:00.612Z,7.73
2022-09-06T16:29:29.276Z,7.87
2022-09-06T16:32:00.706Z,7.73
2022-09-06T16:34:29.327Z,8.60
2022-09-06T16:36:57.913Z,8.10
2022-09-06T16:39:26.549Z,8.07
2022-09-06T16:41:55.393Z,7.93
2022-09-06T16:44:24.011Z,8.40
2022-09-06T16:46:53.718Z,9.20
2022-09-06T16:49:24.196Z,9.03
2022-09-06T16:51:52.752Z,10.80
2022-09-06T16:54:21.669Z,10.00
2022-09-06T16:56:50.438Z,10.07
2022-09-06T16:59:19.047Z,11.60
2022-09-06T17:01:47.817Z,11.87
2022-09-06T17:04:16.802Z,12.87
2022-09-06T17:06:47.085Z,12.73
2022-09-06T17:09:18.623Z,12.50
2022-09-06T17:11:49.827Z,14.30
2022-09-06T17:14:18.625Z,13.27
2022-09-06T17:17:04.545Z,14.93
2022-09-06T17:19:35.766Z,14.47
2022-09-06T17:22:06.383Z,14.63
2022-09-06T17:24:35.045Z,15.10
2022-09-06T17:27:03.638Z,15.97
2022-09-06T17:29:32.623Z,16.63
2022-09-06T17:32:02.144Z,15.80
2022-09-06T17:34:30.833Z,16.70
2022-09-06T17:36:59.411Z,17.70
2022-09-06T17:39:29.431Z,18.47
2022-09-06T17:41:58.232Z,18.80
2022-09-06T17:44:28.162Z,18.83
2022-09-06T17:47:11.916Z,19.50
2022-09-06T17:49:41.318Z,19.77
2022-09-06T17:52:10.094Z,20.30
2022-09-06T17:54:40.077Z,20.20
2022-09-06T17:57:08.705Z,19.87
2022-09-06T17:59:38.521Z,20.57
2022-09-06T18:02:09.910Z,22.40
2022-09-06T18:04:38.638Z,21.20
2022-09-06T18:07:07.396Z,22.10
2022-09-06T18:09:37.036Z,20.73
2022-09-06T18:12:07.896Z,23.57
2022-09-06T18:14:36.894Z,24.93
2022-09-06T18:17:05.605Z,25.37
2022-09-06T18:19:34.127Z,24.93
2022-09-06T18:22:02.717Z,24.73
2022-09-06T18:24:31.306Z,26.03
2022-09-06T18:27:02.745Z,26.40
2022-09-06T18:29:33.038Z,26.70
2022-09-06T18:32:01.696Z,27.20
2022-09-06T18:34:30.328Z,26.73
2022-09-06T18:36:58.877Z,27.00
2022-09-06T18:39:27.633Z,28.63
2022-09-06T18:42:03.875Z,27.90
2022-09-06T18:44:35.296Z,28.13
2022-09-06T18:47:05.517Z,28.83
2022-09-06T18:49:34.916Z,29.20
2022-09-06T18:52:06.628Z,29.50
2022-09-06T18:54:35.840Z,28.90
2022-09-06T18:57:04.508Z,30.17
2022-09-06T18:59:34.457Z,31.60
2022-09-06T19:02:03.080Z,32.43
2022-09-06T19:04:32.089Z,31.60
2022-09-06T19:07:03.868Z,32.73
2022-09-06T19:09:32.675Z,30.37
2022-09-06T19:12:01.284Z,31.10
2022-09-06T19:14:29.829Z,31.37
2022-09-06T19:16:59.723Z,31.53
2022-09-06T19:19:28.324Z,29.57
2022-09-06T19:21:56.904Z,30.07
2022-09-06T19:24:25.681Z,30.00
2022-09-06T19:26:55.260Z,29.60
2022-09-06T19:29:24.057Z,28.97
2022-09-06T19:31:52.996Z,30.20
2022-09-06T19:34:26.086Z,27.07
2022-09-06T19:36:55.321Z,27.37
2022-09-06T19:39:31.147Z,27.23
2022-09-06T19:42:02.315Z,23.57
2022-09-06T19:44:31.072Z,23.90
2022-09-06T19:47:00.390Z,23.20
2022-09-06T19:49:30.903Z,22.30
2022-09-06T19:51:59.527Z,23.97
2022-09-06T19:54:28.610Z,22.53
2022-09-06T19:56:57.195Z,22.77
2022-09-06T19:59:26.001Z,22.10
2022-09-06T20:01:54.942Z,22.70
2022-09-06T20:04:24.100Z,21.33
2022-09-06T20:06:59.587Z,20.83
2022-09-06T20:09:28.663Z,19.33
2022-09-06T20:11:57.242Z,19.77
2022-09-06T20:14:26.432Z,20.37
2022-09-06T20:16:58.130Z,19.53
2022-09-06T20:19:31.876Z,18.10
2022-09-06T20:22:01.857Z,18.90
2022-09-06T20:24:30.565Z,19.30
2022-09-06T20:26:59.178Z,19.80
2022-09-06T20:29:30.196Z,17.30
2022-09-06T20:31:59.010Z,17.00
2022-09-06T20:34:27.720Z,16.93
2022-09-06T20:36:56.346Z,18.00
2022-09-06T20:39:26.491Z,18.67
2022-09-06T20:41:55.135Z,17.37
2022-09-06T20:44:23.687Z,15.73
2022-09-06T20:46:52.704Z,16.57
2022-09-06T20:49:23.094Z,17.37
2022-09-06T20:51:54.851Z,17.70
2022-09-06T20:54:23.477Z,17.07
2022-09-06T20:56:53.759Z,18.20
2022-09-06T20:59:22.542Z,17.90
2022-09-06T21:01:51.247Z,18.43
2022-09-06T21:04:19.963Z,19.67
2022-09-06T21:06:51.007Z,18.97
2022-09-06T21:09:20.005Z,17.50
2022-09-06T21:11:48.702Z,17.50
2022-09-06T21:14:18.807Z,17.50
2022-09-06T21:16:47.497Z,17.63
2022-09-06T21:19:16.444Z,17.37
2022-09-06T21:21:45.102Z,19.43
2022-09-06T21:24:16.796Z,19.03
2022-09-06T21:26:45.679Z,19.53
2022-09-06T21:29:14.427Z,18.87
2022-09-06T21:31:45.263Z,20.30
2022-09-06T21:34:16.932Z,20.33
2022-09-06T21:36:46.114Z,20.97
2022-09-06T21:39:16.157Z,19.57
2022-09-06T21:41:45.836Z,20.63
2022-09-06T21:44:14.680Z,21.40
2022-09-06T21:46:44.921Z,20.80
2022-09-06T21:49:15.152Z,21.07
2022-09-06T21:51:43.771Z,20.17
2022-09-06T21:54:12.710Z,21.00
2022-09-06T21:56:41.771Z,21.67
2022-09-06T21:59:11.214Z,20.30
2022-09-06T22:01:41.020Z,20.77
2022-09-06T22:04:11.670Z,20.00
2022-09-06T22:06:40.789Z,20.27
2022-09-06T22:09:11.548Z,18.60
2022-09-06T22:11:41.675Z,18.40
2022-09-06T22:14:12.809Z,21.40
2022-09-06T22:16:42.643Z,19.80
2022-09-06T22:19:13.181Z,19.70
2022-09-06T22:21:42.106Z,22.43
2022-09-06T22:24:12.615Z,20.33
2022-09-06T22:26:42.268Z,20.37
2022-09-06T22:29:13.634Z,20.13
2022-09-06T22:31:42.823Z,19.87
2022-09-06T22:34:13.263Z,21.13
2022-09-06T22:36:42.760Z,20.70
2022-09-06T22:39:11.591Z,21.37
2022-09-06T22:41:40.224Z,19.50
2022-09-06T22:44:08.913Z,21.60
2022-09-06T22:46:38.458Z,20.93
2022-09-06T22:49:07.297Z,21.00
2022-09-06T22:51:37.341Z,21.33
2022-09-06T22:54:06.335Z,21.43
2022-09-06T22:56:35.796Z,20.50
2022-09-06T22:59:04.647Z,22.63
2022-09-06T23:01:38.660Z,21.47
2022-09-06T23:04:08.372Z,21.00
2022-09-06T23:06:38.820Z,22.77
2022-09-06T23:09:07.835Z,20.10
2022-09-06T23:11:36.476Z,20.43
2022-09-06T23:14:05.986Z,20.93
2022-09-06T23:16:34.711Z,21.70
2022-09-06T23:19:03.370Z,21.67
2022-09-06T23:21:32.448Z,20.10
2022-09-06T23:24:02.599Z,22.43
2022-09-06T23:26:33.515Z,20.80
2022-09-06T23:29:02.210Z,21.87
2022-09-06T23:31:32.686Z,21.43
2022-09-06T23:34:02.428Z,20.60
2022-09-06T23:36:31.469Z,21.33
2022-09-06T23:39:02.583Z,21.50
2022-09-06T23:41:31.773Z,21.70
2022-09-06T23:44:00.766Z,20.13
2022-09-06T23:46:29.463Z,20.63
2022-09-06T23:49:01.091Z,20.27
2022-09-06T23:51:29.689Z,19.70
2022-09-06T23:53:58.400Z,18.53
2022-09-06T23:56:28.361Z,19.80
2022-09-06T23:58:57.124Z,18.83
